Notice: Undefined index: name in /var/www/html/metar_load_funct.php on line 61

Notice: Undefined index: humidity_percent in /var/www/html/metar_load_funct.php on line 103
Weather34 Metar Aviation Weather Data Popup
8°C Temp
'.PHP_EOL;
7°C Dauwpunt
% Vochtigheid
Temperatuur
24 KM/H
15 MPH
13 KTS
320°
Noord West

Wind Snelheid
Heavy Drizzle
Luchtdruk 1006.92 (hPa)- 29.73 (in)
Zicht 4.3 (mi) - 7 (km)

Huidig weer
EHLW
Locatie 30(km)
Metar:
EHLW 182239Z AUTO 32013KT 290V350 7000 +DZ FEW014 FEW015CB BKN030 OVC034 08/07 Q1007 WHT

Notice: Undefined offset: 1 in /var/www/html/metar_popup.php on line 285

Notice: Undefined offset: 1 in /var/www/html/metar_popup.php on line 287

Warning: gmmktime() expects parameter 1 to be long, string given in /var/www/html/metar_popup.php on line 288
Thu 1st January 01:00 am

Vliegveld
  Metar Aviation API Data Provided by https://www.checkwx.com/